createdAt,value
2022-11-29T00:01:29.800Z,3.70
2022-11-29T00:05:34.662Z,3.50
2022-11-29T00:09:36.346Z,3.03
2022-11-29T00:13:38.530Z,2.97
2022-11-29T00:17:40.248Z,3.58
2022-11-29T00:21:41.996Z,3.22
2022-11-29T00:25:43.664Z,3.50
2022-11-29T00:29:45.448Z,3.28
2022-11-29T00:33:48.128Z,2.88
2022-11-29T00:37:49.893Z,3.80
2022-11-29T00:41:51.589Z,3.13
2022-11-29T00:45:54.470Z,3.20
2022-11-29T00:49:56.182Z,3.70
2022-11-29T00:53:57.854Z,3.20
2022-11-29T00:57:59.584Z,3.15
2022-11-29T01:02:01.468Z,2.90
2022-11-29T01:06:09.333Z,3.55
2022-11-29T01:10:11.884Z,2.97
2022-11-29T01:14:14.400Z,2.95
2022-11-29T01:18:16.157Z,2.97
2022-11-29T01:22:18.554Z,3.00
2022-11-29T01:26:23.442Z,4.07
2022-11-29T01:30:25.811Z,3.80
2022-11-29T01:34:27.570Z,3.47
2022-11-29T01:38:29.425Z,3.33
2022-11-29T01:42:31.102Z,3.53
2022-11-29T01:46:36.783Z,3.30
2022-11-29T01:50:39.611Z,3.45
2022-11-29T01:54:46.795Z,4.10
2022-11-29T01:58:48.838Z,4.43
2022-11-29T02:03:05.438Z,4.05
2022-11-29T02:07:07.280Z,3.50
2022-11-29T02:11:12.054Z,3.28
2022-11-29T02:15:45.397Z,3.80
2022-11-29T02:20:17.938Z,2.97
2022-11-29T02:24:38.963Z,3.00
2022-11-29T02:29:04.705Z,3.58
2022-11-29T02:33:34.164Z,3.38
2022-11-29T02:38:15.442Z,2.80
2022-11-29T02:42:55.992Z,2.95
2022-11-29T02:47:09.177Z,3.85
2022-11-29T02:51:38.127Z,3.60
2022-11-29T02:55:49.278Z,4.40
2022-11-29T03:00:01.963Z,5.30
2022-11-29T03:04:23.685Z,4.20
2022-11-29T03:08:43.939Z,3.97
2022-11-29T03:12:49.662Z,3.70
2022-11-29T03:16:56.996Z,3.58
2022-11-29T03:21:23.217Z,3.42
2022-11-29T03:26:04.982Z,3.22
2022-11-29T03:30:10.687Z,3.72
2022-11-29T03:34:39.054Z,3.80
2022-11-29T03:38:42.667Z,4.45
2022-11-29T03:42:56.616Z,3.90
2022-11-29T03:47:16.228Z,4.70
2022-11-29T03:51:49.140Z,5.40
2022-11-29T03:56:00.693Z,4.93
2022-11-29T04:00:09.760Z,3.92
2022-11-29T04:04:47.715Z,4.60
2022-11-29T04:09:07.775Z,5.15
2022-11-29T04:13:15.349Z,4.72
2022-11-29T04:17:19.813Z,4.40
2022-11-29T04:21:39.606Z,4.13
2022-11-29T04:26:12.325Z,3.92
2022-11-29T04:30:22.966Z,5.47
2022-11-29T04:34:43.994Z,4.90
2022-11-29T04:39:04.558Z,4.50
2022-11-29T04:43:15.438Z,4.45
2022-11-29T04:47:44.541Z,4.18
2022-11-29T04:52:14.008Z,4.25
2022-11-29T04:56:25.675Z,5.80
2022-11-29T05:00:32.477Z,6.35
2022-11-29T05:04:46.290Z,4.88
2022-11-29T05:09:06.761Z,6.18
2022-11-29T05:13:45.745Z,5.95
2022-11-29T05:18:05.819Z,6.60
2022-11-29T05:22:36.021Z,5.75
2022-11-29T05:26:38.119Z,6.20
2022-11-29T05:31:17.626Z,8.15
2022-11-29T05:35:55.199Z,8.07
2022-11-29T05:40:14.564Z,7.72
2022-11-29T05:44:41.115Z,6.43
2022-11-29T05:48:51.215Z,7.88
2022-11-29T05:53:15.156Z,7.00
2022-11-29T05:57:54.554Z,7.03
2022-11-29T06:02:12.428Z,7.00
2022-11-29T06:06:32.815Z,8.90
2022-11-29T06:10:40.095Z,7.40
2022-11-29T06:15:20.896Z,8.82
2022-11-29T06:19:53.144Z,8.70
2022-11-29T06:23:54.788Z,7.28
2022-11-29T06:28:08.568Z,8.32
2022-11-29T06:32:28.713Z,8.60
2022-11-29T06:36:50.912Z,7.05
2022-11-29T06:41:00.117Z,8.98
2022-11-29T06:45:04.217Z,7.55
2022-11-29T06:49:44.199Z,7.72
2022-11-29T06:53:57.752Z,7.60
2022-11-29T06:58:32.841Z,6.82
2022-11-29T07:03:14.781Z,7.15
2022-11-29T07:07:21.476Z,5.38
2022-11-29T07:11:23.519Z,7.43
2022-11-29T07:15:25.741Z,8.45
2022-11-29T07:19:52.220Z,8.05
2022-11-29T07:24:04.067Z,6.35
2022-11-29T07:28:11.448Z,6.80
2022-11-29T07:32:25.031Z,9.32
2022-11-29T07:36:37.455Z,7.50
2022-11-29T07:40:54.065Z,6.53
2022-11-29T07:45:09.930Z,6.90
2022-11-29T07:49:11.781Z,8.18
2022-11-29T07:53:17.791Z,6.75
2022-11-29T07:57:19.586Z,9.20
2022-11-29T08:01:21.292Z,8.63
2022-11-29T08:05:24.030Z,7.55
2022-11-29T08:09:25.775Z,7.75
2022-11-29T08:13:27.481Z,7.95
2022-11-29T08:17:29.233Z,7.78
2022-11-29T08:21:31.023Z,7.90
2022-11-29T08:25:32.912Z,7.20
2022-11-29T08:29:34.642Z,7.70
2022-11-29T08:33:38.169Z,8.32
2022-11-29T08:37:39.883Z,6.38
2022-11-29T08:41:41.650Z,6.80
2022-11-29T08:45:43.371Z,5.40
2022-11-29T08:50:03.130Z,8.55
2022-11-29T08:54:06.179Z,8.07
2022-11-29T08:58:13.042Z,7.35
2022-11-29T09:02:14.813Z,6.68
2022-11-29T09:06:16.874Z,5.30
2022-11-29T09:10:18.682Z,9.25
2022-11-29T09:14:22.367Z,7.88
2022-11-29T09:18:24.053Z,6.63
2022-11-29T09:22:25.747Z,12.32
2022-11-29T09:26:31.325Z,8.85
2022-11-29T09:30:35.033Z,8.35
2022-11-29T09:34:36.850Z,7.63
2022-11-29T09:38:39.398Z,8.95
2022-11-29T09:42:55.237Z,9.05
2022-11-29T09:47:13.571Z,9.75
2022-11-29T09:51:44.030Z,8.35
2022-11-29T09:55:58.546Z,10.80
2022-11-29T10:00:05.651Z,12.35
2022-11-29T10:04:30.830Z,10.45
2022-11-29T10:08:46.048Z,11.40
2022-11-29T10:12:56.557Z,8.90
2022-11-29T10:17:11.398Z,9.57
2022-11-29T10:21:21.439Z,10.20
2022-11-29T10:25:28.628Z,8.88
2022-11-29T10:29:30.515Z,10.27
2022-11-29T10:33:35.962Z,10.90
2022-11-29T10:37:38.477Z,11.45
2022-11-29T10:41:40.273Z,10.40
2022-11-29T10:45:50.692Z,10.23
2022-11-29T10:49:52.684Z,10.02
2022-11-29T10:53:55.160Z,10.57
2022-11-29T10:58:15.574Z,13.23
2022-11-29T11:02:19.166Z,8.20
2022-11-29T11:06:41.860Z,9.30
2022-11-29T11:10:58.603Z,9.02
2022-11-29T11:15:16.815Z,8.38
2022-11-29T11:19:32.397Z,10.73
2022-11-29T11:23:42.735Z,8.00
2022-11-29T11:27:44.865Z,6.43
2022-11-29T11:31:56.605Z,7.05
2022-11-29T11:36:14.254Z,6.80
2022-11-29T11:40:26.491Z,6.07
2022-11-29T11:44:49.711Z,7.38
2022-11-29T11:48:51.712Z,6.63
2022-11-29T11:52:57.945Z,8.07
2022-11-29T11:57:00.067Z,6.73
2022-11-29T12:01:15.595Z,5.97
2022-11-29T12:05:20.148Z,7.53
2022-11-29T12:09:41.876Z,7.90
2022-11-29T12:13:57.772Z,6.85
2022-11-29T12:18:04.737Z,6.00
2022-11-29T12:22:12.659Z,6.95
2022-11-29T12:26:49.069Z,7.32
2022-11-29T12:31:05.084Z,8.40
2022-11-29T12:35:25.222Z,7.90
2022-11-29T12:40:17.301Z,8.57
2022-11-29T12:44:39.853Z,6.78
2022-11-29T12:49:11.849Z,10.15
2022-11-29T12:53:27.032Z,7.90
2022-11-29T12:57:52.925Z,7.18
2022-11-29T13:02:33.433Z,6.65
2022-11-29T13:06:59.726Z,6.35
2022-11-29T13:11:19.782Z,7.10
2022-11-29T13:15:38.043Z,7.63
2022-11-29T13:19:49.926Z,6.85
2022-11-29T13:24:09.049Z,7.60
2022-11-29T13:28:29.709Z,7.95
2022-11-29T13:32:39.105Z,8.32
2022-11-29T13:37:01.976Z,6.95
2022-11-29T13:41:36.625Z,6.82
2022-11-29T13:45:49.640Z,5.38
2022-11-29T13:49:54.430Z,6.25
2022-11-29T13:53:58.500Z,5.90
2022-11-29T13:58:19.528Z,7.07
2022-11-29T14:02:30.461Z,6.15
2022-11-29T14:06:37.574Z,7.20
2022-11-29T14:10:39.454Z,7.00
2022-11-29T14:15:03.457Z,6.78
2022-11-29T14:19:21.086Z,6.75
2022-11-29T14:23:34.721Z,6.38
2022-11-29T14:27:36.459Z,5.75
2022-11-29T14:31:50.548Z,5.78
2022-11-29T14:36:22.935Z,7.03
2022-11-29T14:40:42.773Z,6.35
2022-11-29T14:44:56.113Z,4.90
2022-11-29T14:49:03.073Z,5.53
2022-11-29T14:53:07.509Z,5.32
2022-11-29T14:57:46.950Z,5.30
2022-11-29T15:01:49.496Z,5.03
2022-11-29T15:05:58.296Z,5.45
2022-11-29T15:10:03.003Z,6.13
2022-11-29T15:14:07.343Z,6.50
2022-11-29T15:18:38.255Z,5.25
2022-11-29T15:22:46.423Z,4.63
2022-11-29T15:27:02.287Z,4.50
2022-11-29T15:31:07.275Z,6.13
2022-11-29T15:35:18.535Z,8.73
2022-11-29T15:39:38.095Z,9.50
2022-11-29T15:43:40.883Z,10.77
2022-11-29T15:47:42.602Z,9.60
2022-11-29T15:51:47.988Z,8.60
2022-11-29T15:55:52.405Z,9.38
2022-11-29T15:59:57.982Z,8.82
2022-11-29T16:03:59.911Z,6.07
2022-11-29T16:08:22.271Z,5.75
2022-11-29T16:12:24.612Z,5.10
2022-11-29T16:16:28.066Z,6.00
2022-11-29T16:20:30.145Z,5.80
2022-11-29T16:24:34.166Z,6.43
2022-11-29T16:28:43.699Z,6.40
2022-11-29T16:32:52.726Z,4.65
2022-11-29T16:37:03.889Z,4.53
2022-11-29T16:41:21.389Z,4.68
2022-11-29T16:45:36.694Z,5.82
2022-11-29T16:49:38.426Z,5.63
2022-11-29T16:53:42.282Z,6.03
2022-11-29T16:57:46.535Z,4.85
2022-11-29T17:01:48.340Z,5.78
2022-11-29T17:05:50.498Z,6.30
2022-11-29T17:09:52.916Z,6.75
2022-11-29T17:13:54.717Z,7.25
2022-11-29T17:17:56.548Z,7.65
2022-11-29T17:21:58.707Z,6.95
2022-11-29T17:26:02.015Z,4.75
2022-11-29T17:30:05.362Z,5.35
2022-11-29T17:34:07.316Z,7.28
2022-11-29T17:38:08.973Z,7.63
2022-11-29T17:42:12.525Z,6.40
2022-11-29T17:46:17.934Z,6.50
2022-11-29T17:50:19.743Z,4.53
2022-11-29T17:54:22.254Z,4.15
2022-11-29T17:58:24.370Z,5.57
2022-11-29T18:02:26.132Z,5.55
2022-11-29T18:06:31.422Z,5.05
2022-11-29T18:10:33.294Z,5.07
2022-11-29T18:14:36.307Z,5.78
2022-11-29T18:18:38.608Z,5.88
2022-11-29T18:22:40.349Z,6.45
2022-11-29T18:26:42.816Z,5.78
2022-11-29T18:30:44.572Z,5.50
2022-11-29T18:34:46.592Z,5.75
2022-11-29T18:38:49.303Z,7.60
2022-11-29T18:42:51.069Z,8.02
2022-11-29T18:46:52.792Z,6.50
2022-11-29T18:50:54.485Z,6.00
2022-11-29T18:54:56.153Z,6.22
2022-11-29T18:59:00.283Z,5.50
2022-11-29T19:03:01.984Z,6.30
2022-11-29T19:07:03.682Z,6.85
2022-11-29T19:11:07.958Z,6.15
2022-11-29T19:15:10.326Z,6.30
2022-11-29T19:19:12.724Z,7.05
2022-11-29T19:23:15.259Z,5.35
2022-11-29T19:27:16.947Z,4.45
2022-11-29T19:31:20.139Z,5.68
2022-11-29T19:35:21.920Z,5.70
2022-11-29T19:39:23.591Z,5.32
2022-11-29T19:43:26.161Z,5.97
2022-11-29T19:47:27.861Z,6.55
2022-11-29T19:51:30.455Z,5.72
2022-11-29T19:55:33.770Z,6.13
2022-11-29T19:59:35.515Z,4.72
2022-11-29T20:03:37.425Z,5.63
2022-11-29T20:07:39.205Z,5.28
2022-11-29T20:11:41.062Z,5.13
2022-11-29T20:15:42.823Z,4.40
2022-11-29T20:19:45.007Z,4.50
2022-11-29T20:23:47.848Z,6.22
2022-11-29T20:27:51.023Z,6.32
2022-11-29T20:31:53.415Z,5.03
2022-11-29T20:36:05.613Z,4.68
2022-11-29T20:40:16.638Z,5.47
2022-11-29T20:44:21.717Z,4.97
2022-11-29T20:48:23.617Z,5.68
2022-11-29T20:52:55.715Z,5.15
2022-11-29T20:56:57.400Z,4.70
2022-11-29T21:00:59.679Z,5.55
2022-11-29T21:05:01.365Z,5.75
2022-11-29T21:09:05.047Z,5.93
2022-11-29T21:13:07.530Z,7.15
2022-11-29T21:17:09.602Z,5.93
2022-11-29T21:21:25.815Z,6.07
2022-11-29T21:25:58.258Z,5.57
2022-11-29T21:30:03.282Z,6.60
2022-11-29T21:34:06.076Z,5.68
2022-11-29T21:38:14.727Z,5.53
2022-11-29T21:42:16.394Z,6.30
2022-11-29T21:46:18.294Z,7.38
2022-11-29T21:50:20.031Z,5.70
2022-11-29T21:54:21.720Z,5.13
2022-11-29T21:58:23.524Z,5.65
2022-11-29T22:02:25.311Z,5.45
2022-11-29T22:06:29.301Z,4.93
2022-11-29T22:10:32.358Z,5.28
2022-11-29T22:14:34.066Z,5.18
2022-11-29T22:18:36.684Z,5.95
2022-11-29T22:22:38.390Z,7.57
2022-11-29T22:26:40.477Z,6.88
2022-11-29T22:30:42.144Z,6.35
2022-11-29T22:34:44.975Z,6.38
2022-11-29T22:38:46.926Z,4.60
2022-11-29T22:42:48.533Z,6.00
2022-11-29T22:46:50.978Z,6.50
2022-11-29T22:50:52.726Z,5.97
2022-11-29T22:54:54.442Z,5.68
2022-11-29T22:58:56.223Z,4.47
2022-11-29T23:02:58.010Z,5.20
2022-11-29T23:06:59.957Z,4.43
2022-11-29T23:11:05.908Z,4.80
2022-11-29T23:15:07.800Z,3.95
2022-11-29T23:19:09.653Z,4.90
2022-11-29T23:23:11.453Z,4.55
2022-11-29T23:27:13.141Z,4.13
2022-11-29T23:31:15.790Z,5.25
2022-11-29T23:35:17.625Z,3.97
2022-11-29T23:39:19.322Z,4.53
2022-11-29T23:43:21.868Z,4.88
2022-11-29T23:47:23.992Z,4.32
2022-11-29T23:51:25.810Z,4.10
2022-11-29T23:55:27.610Z,3.58
2022-11-29T23:59:29.574Z,4.85
